North River — WYR2549 — position and weather

sailwx.info

Track history (hours):
 
Tides and Currents Weather Stations Pressure Air Temp Water Temp Dewpoint Dewpoint Depression Visibility Wind Speed Wind Dir Waves Ship Positions

North River

Owner: CITY OF NEW YORK, Brooklyn, NY. More information available from US FCC via Universal Licensing System and Coast Guard Vessel Documentation Center.

Last reported at 2017-Apr-26 17:41 UTC. Time now 2017-Apr-27 07:13 UTC.
Position N 40°47' W 073°55'.

Length 78 m.

Type: Tanker. MMSI: 367074110.

Date/timePositionNaut miles runAvg speedWind from/ knotsBaromVisibWave heightAir tempDewpointWater temp
2017-Apr-26 17:41N 40°47' W 073°55'1 5.9
2017-Apr-26 17:30N 40°48' W 073°54'1 1.4
2017-Apr-26 16:59N 40°48' W 073°53'0 0.0
2017-Apr-26 16:30N 40°48' W 073°53'0 0.0
2017-Apr-26 16:00N 40°48' W 073°53'0 0.0
2017-Apr-26 15:30N 40°48' W 073°53'2 3.6
2017-Apr-26 14:58N 40°48' W 073°51'0 0.2
2017-Apr-26 14:00N 40°48' W 073°50'0 0.0
2017-Apr-26 13:29N 40°48' W 073°50'0 0.0
2017-Apr-26 13:00N 40°48' W 073°50'4 0.2
2017-Apr-25 20:40N 40°47' W 073°55'212.2
2017-Apr-25 20:30N 40°46' W 073°57'5 9.4
2017-Apr-25 20:00N 40°42' W 074°01'714.6
2017-Apr-25 19:30N 40°49' W 073°58'0 0.9
2017-Apr-25 19:00N 40°49' W 073°58'0 0.0
2017-Apr-25 18:30N 40°49' W 073°58'0 0.0
2017-Apr-25 18:00N 40°49' W 073°58'0 0.0
2017-Apr-25 17:30N 40°49' W 073°58'1 1.7
2017-Apr-25 17:00N 40°49' W 073°58'510.1
2017-Apr-25 16:31N 40°44' W 074°01'2 4.7
2017-Apr-25 16:01N 40°45' W 073°58'3 0.1
2017-Apr-24 18:28N 40°47' W 073°55'510.0
2017-Apr-24 18:00N 40°43' W 073°58'510.2
2017-Apr-24 17:30N 40°39' W 074°03'3 6.8
2017-Apr-24 17:00N 40°38' W 074°08'0 0.0
2017-Apr-24 16:30N 40°38' W 074°08'0 0.0
2017-Apr-24 16:00N 40°38' W 074°08'0 0.0
2017-Apr-24 15:30N 40°38' W 074°08'2 3.1
2017-Apr-24 15:01N 40°39' W 074°06'611.9
2017-Apr-24 14:31N 40°42' W 073°59'9 8.7
2017-Apr-24 13:30N 40°48' W 073°50'0 0.0
2017-Apr-24 13:00N 40°48' W 073°50'0 0.0
2017-Apr-24 12:31N 40°48' W 073°50'4 6.2
2017-Apr-24 11:54N 40°47' W 073°55'0 0.0
2017-Apr-24 11:28N 40°47' W 073°55'  
2017-Apr-21 18:06N 40°47' W 073°55'0 1.5
2017-Apr-21 17:57N 40°47' W 073°55'2 0.8
2017-Apr-21 16:07N 40°48' W 073°53'0 0.0
2017-Apr-21 15:51N 40°48' W 073°53'0 0.0
2017-Apr-21 15:24N 40°48' W 073°53'1 3.0
2017-Apr-21 15:00N 40°47' W 073°54'0 0.0
2017-Apr-21 14:30N 40°47' W 073°54'0 0.0
2017-Apr-21 13:30N 40°47' W 073°54'0 0.0
2017-Apr-21 13:00N 40°47' W 073°54'0 0.0
2017-Apr-20 23:32N 40°47' W 073°54'0 0.5
2017-Apr-20 23:30N 40°47' W 073°54'1 2.5
2017-Apr-20 22:59N 40°47' W 073°55'0 0.0
2017-Apr-20 22:26N 40°47' W 073°55'0 0.0
2017-Apr-20 22:00N 40°47' W 073°55'0 0.0
2017-Apr-20 21:30N 40°47' W 073°55'0 0.0
2017-Apr-20 21:00N 40°47' W 073°55'4 7.5
2017-Apr-20 20:30N 40°44' W 073°58'3 5.1
2017-Apr-20 20:00N 40°44' W 074°01'610.7
2017-Apr-20 19:29N 40°49' W 073°59'1 2.3
2017-Apr-20 19:00N 40°49' W 073°58'0 0.0
2017-Apr-20 18:30N 40°49' W 073°58'0 0.0
2017-Apr-20 17:59N 40°49' W 073°58'0 0.0
2017-Apr-20 17:30N 40°49' W 073°58'0 0.6
2017-Apr-20 17:00N 40°50' W 073°57'4 7.1
2017-Apr-20 16:30N 40°47' W 073°60'4 8.5
2017-Apr-20 16:00N 40°43' W 074°01'4 7.6
2017-Apr-20 15:30N 40°45' W 073°58'5 9.0
2017-Apr-20 15:00N 40°48' W 073°53'0 0.1
2017-Apr-20 13:47N 40°48' W 073°53'0 0.0
2017-Apr-20 13:14N 40°48' W 073°53'0 0.0
2017-Apr-20 12:53N 40°48' W 073°53'1 2.6
2017-Apr-20 12:29N 40°47' W 073°54'0 0.4
2017-Apr-20 12:00N 40°47' W 073°54'0 0.0
2017-Apr-20 11:30N 40°47' W 073°54'0 0.0
2017-Apr-20 11:00N 40°47' W 073°54'0 0.0
2017-Apr-20 10:30N 40°47' W 073°54'0 0.0
2017-Apr-19 20:22N 40°47' W 073°54'1 3.3
2017-Apr-19 20:00N 40°48' W 073°53'0 0.0
2017-Apr-19 19:30N 40°48' W 073°53'1 1.0
2017-Apr-19 17:59N 40°48' W 073°51'1 1.3
2017-Apr-19 17:29N 40°48' W 073°50'0 0.0
2017-Apr-19 17:00N 40°48' W 073°50'0 0.0
2017-Apr-19 16:30N 40°48' W 073°50'2 0.9
2017-Apr-19 14:01N 40°48' W 073°53'1 2.3
2017-Apr-19 13:30N 40°47' W 073°54'0 0.0
2017-Apr-19 13:00N 40°47' W 073°54'0 0.0
2017-Apr-19 12:30N 40°47' W 073°54'0 0.0
2017-Apr-19 12:00N 40°47' W 073°54'0 0.0
2017-Apr-19 11:30N 40°47' W 073°54'0 0.0
2017-Apr-18 22:02N 40°47' W 073°54'0 5.8
2017-Apr-18 22:00N 40°47' W 073°54'1 1.8
2017-Apr-18 21:30N 40°48' W 073°53'0 0.0
2017-Apr-18 21:00N 40°48' W 073°53'0 0.0
2017-Apr-18 20:30N 40°48' W 073°53'0 0.0
2017-Apr-18 20:00N 40°48' W 073°53'1 2.5
2017-Apr-18 19:30N 40°47' W 073°54'0 0.0
2017-Apr-18 19:00N 40°47' W 073°54'0 0.0
2017-Apr-18 18:30N 40°47' W 073°54'0 0.0
2017-Apr-18 18:00N 40°47' W 073°54'0 0.0
2017-Apr-18 17:30N 40°47' W 073°54'1 2.5
2017-Apr-18 17:00N 40°48' W 073°53'0 0.0
2017-Apr-18 16:30N 40°48' W 073°53'0 0.0
2017-Apr-18 16:00N 40°48' W 073°53'0 0.0
2017-Apr-18 15:30N 40°48' W 073°53'0 0.0
2017-Apr-18 15:00N 40°48' W 073°53'1 2.4
2017-Apr-18 14:30N 40°47' W 073°54'0 0.0
2017-Apr-18 13:30N 40°47' W 073°54'0 0.0
2017-Apr-18 13:00N 40°47' W 073°54'0 0.0
2017-Apr-18 12:30N 40°47' W 073°54'0 0.0
2017-Apr-18 12:00N 40°47' W 073°54'0 0.0
2017-Apr-18 11:30N 40°47' W 073°54'  
Track history (hours):
 
Tides and Currents Weather Stations Pressure Air Temp Water Temp Dewpoint Dewpoint Depression Visibility Wind Speed Wind Dir Waves Ship Positions

North River

Owner: CITY OF NEW YORK, Brooklyn, NY. More information available from US FCC via Universal Licensing System and Coast Guard Vessel Documentation Center.

Last reported at 2017-Apr-26 17:41 UTC. Time now 2017-Apr-27 07:13 UTC.
Position N 40°47' W 073°55'.

Length 78 m.

Type: Tanker. MMSI: 367074110.

Date/timePositionNaut miles runAvg speedWind from/ knotsBaromVisibWave heightAir tempDewpointWater temp
2017-Apr-26 17:41N 40°47' W 073°55'1 5.9
2017-Apr-26 17:30N 40°48' W 073°54'1 1.4
2017-Apr-26 16:59N 40°48' W 073°53'0 0.0
2017-Apr-26 16:30N 40°48' W 073°53'0 0.0
2017-Apr-26 16:00N 40°48' W 073°53'0 0.0
2017-Apr-26 15:30N 40°48' W 073°53'2 3.6
2017-Apr-26 14:58N 40°48' W 073°51'0 0.2
2017-Apr-26 14:00N 40°48' W 073°50'0 0.0
2017-Apr-26 13:29N 40°48' W 073°50'0 0.0
2017-Apr-26 13:00N 40°48' W 073°50'4 0.2
2017-Apr-25 20:40N 40°47' W 073°55'212.2
2017-Apr-25 20:30N 40°46' W 073°57'5 9.4
2017-Apr-25 20:00N 40°42' W 074°01'714.6
2017-Apr-25 19:30N 40°49' W 073°58'0 0.9
2017-Apr-25 19:00N 40°49' W 073°58'0 0.0
2017-Apr-25 18:30N 40°49' W 073°58'0 0.0
2017-Apr-25 18:00N 40°49' W 073°58'0 0.0
2017-Apr-25 17:30N 40°49' W 073°58'1 1.7
2017-Apr-25 17:00N 40°49' W 073°58'510.1
2017-Apr-25 16:31N 40°44' W 074°01'2 4.7
2017-Apr-25 16:01N 40°45' W 073°58'3 0.1
2017-Apr-24 18:28N 40°47' W 073°55'510.0
2017-Apr-24 18:00N 40°43' W 073°58'510.2
2017-Apr-24 17:30N 40°39' W 074°03'3 6.8
2017-Apr-24 17:00N 40°38' W 074°08'0 0.0
2017-Apr-24 16:30N 40°38' W 074°08'0 0.0
2017-Apr-24 16:00N 40°38' W 074°08'0 0.0
2017-Apr-24 15:30N 40°38' W 074°08'2 3.1
2017-Apr-24 15:01N 40°39' W 074°06'611.9
2017-Apr-24 14:31N 40°42' W 073°59'9 8.7
2017-Apr-24 13:30N 40°48' W 073°50'0 0.0
2017-Apr-24 13:00N 40°48' W 073°50'0 0.0
2017-Apr-24 12:31N 40°48' W 073°50'4 6.2
2017-Apr-24 11:54N 40°47' W 073°55'0 0.0
2017-Apr-24 11:28N 40°47' W 073°55'  
2017-Apr-21 18:06N 40°47' W 073°55'0 1.5
2017-Apr-21 17:57N 40°47' W 073°55'2 0.8
2017-Apr-21 16:07N 40°48' W 073°53'0 0.0
2017-Apr-21 15:51N 40°48' W 073°53'0 0.0
2017-Apr-21 15:24N 40°48' W 073°53'1 3.0
2017-Apr-21 15:00N 40°47' W 073°54'0 0.0
2017-Apr-21 14:30N 40°47' W 073°54'0 0.0
2017-Apr-21 13:30N 40°47' W 073°54'0 0.0
2017-Apr-21 13:00N 40°47' W 073°54'0 0.0
2017-Apr-20 23:32N 40°47' W 073°54'0 0.5
2017-Apr-20 23:30N 40°47' W 073°54'1 2.5
2017-Apr-20 22:59N 40°47' W 073°55'0 0.0
2017-Apr-20 22:26N 40°47' W 073°55'0 0.0
2017-Apr-20 22:00N 40°47' W 073°55'0 0.0
2017-Apr-20 21:30N 40°47' W 073°55'0 0.0
2017-Apr-20 21:00N 40°47' W 073°55'4 7.5
2017-Apr-20 20:30N 40°44' W 073°58'3 5.1
2017-Apr-20 20:00N 40°44' W 074°01'610.7
2017-Apr-20 19:29N 40°49' W 073°59'1 2.3
2017-Apr-20 19:00N 40°49' W 073°58'0 0.0
2017-Apr-20 18:30N 40°49' W 073°58'0 0.0
2017-Apr-20 17:59N 40°49' W 073°58'0 0.0
2017-Apr-20 17:30N 40°49' W 073°58'0 0.6
2017-Apr-20 17:00N 40°50' W 073°57'4 7.1
2017-Apr-20 16:30N 40°47' W 073°60'4 8.5
2017-Apr-20 16:00N 40°43' W 074°01'4 7.6
2017-Apr-20 15:30N 40°45' W 073°58'5 9.0
2017-Apr-20 15:00N 40°48' W 073°53'0 0.1
2017-Apr-20 13:47N 40°48' W 073°53'0 0.0
2017-Apr-20 13:14N 40°48' W 073°53'0 0.0
2017-Apr-20 12:53N 40°48' W 073°53'1 2.6
2017-Apr-20 12:29N 40°47' W 073°54'0 0.4
2017-Apr-20 12:00N 40°47' W 073°54'0 0.0
2017-Apr-20 11:30N 40°47' W 073°54'0 0.0
2017-Apr-20 11:00N 40°47' W 073°54'0 0.0
2017-Apr-20 10:30N 40°47' W 073°54'0 0.0
2017-Apr-19 20:22N 40°47' W 073°54'1 3.3
2017-Apr-19 20:00N 40°48' W 073°53'0 0.0
2017-Apr-19 19:30N 40°48' W 073°53'1 1.0
2017-Apr-19 17:59N 40°48' W 073°51'1 1.3
2017-Apr-19 17:29N 40°48' W 073°50'0 0.0
2017-Apr-19 17:00N 40°48' W 073°50'0 0.0
2017-Apr-19 16:30N 40°48' W 073°50'2 0.9
2017-Apr-19 14:01N 40°48' W 073°53'1 2.3
2017-Apr-19 13:30N 40°47' W 073°54'0 0.0
2017-Apr-19 13:00N 40°47' W 073°54'0 0.0
2017-Apr-19 12:30N 40°47' W 073°54'0 0.0
2017-Apr-19 12:00N 40°47' W 073°54'0 0.0
2017-Apr-19 11:30N 40°47' W 073°54'0 0.0
2017-Apr-18 22:02N 40°47' W 073°54'0 5.8
2017-Apr-18 22:00N 40°47' W 073°54'1 1.8
2017-Apr-18 21:30N 40°48' W 073°53'0 0.0
2017-Apr-18 21:00N 40°48' W 073°53'0 0.0
2017-Apr-18 20:30N 40°48' W 073°53'0 0.0
2017-Apr-18 20:00N 40°48' W 073°53'1 2.5
2017-Apr-18 19:30N 40°47' W 073°54'0 0.0
2017-Apr-18 19:00N 40°47' W 073°54'0 0.0
2017-Apr-18 18:30N 40°47' W 073°54'0 0.0
2017-Apr-18 18:00N 40°47' W 073°54'0 0.0
2017-Apr-18 17:30N 40°47' W 073°54'1 2.5
2017-Apr-18 17:00N 40°48' W 073°53'0 0.0
2017-Apr-18 16:30N 40°48' W 073°53'0 0.0
2017-Apr-18 16:00N 40°48' W 073°53'0 0.0
2017-Apr-18 15:30N 40°48' W 073°53'0 0.0
2017-Apr-18 15:00N 40°48' W 073°53'1 2.4
2017-Apr-18 14:30N 40°47' W 073°54'0 0.0
2017-Apr-18 13:30N 40°47' W 073°54'0 0.0
2017-Apr-18 13:00N 40°47' W 073°54'0 0.0
2017-Apr-18 12:30N 40°47' W 073°54'0 0.0
2017-Apr-18 12:00N 40°47' W 073°54'0 0.0
2017-Apr-18 11:30N 40°47' W 073°54'  

Dump ship's entire track history